Estación Meteorológica Peña el Pijo (Robertgarden) [ 07/23/19 01:09:49 CEST ]

Fecha Hora Presion(HPa) Temp (°C) Humedad % Rocio (°C) Viento ( m/s) Direccion Lluvia 1Hora(mm) Lluvia 24H(mm) LLuvia Total(mm)
2019-May-18 01:01:55 1002.800 12.2 51 2.3         318.05
2019-May-18 02:01:48 1002.800 11.3 59 3.5         318.05
2019-May-18 03:01:46 1002.300 11.6 64 5.0         318.05
2019-May-18 04:01:43 1002.000 11.3 67 5.4         318.05
2019-May-18 05:05:15 1000.900 11.4 71 6.3         318.05
2019-May-18 06:01:45 1000.800 11.0 72 6.2         318.05
2019-May-18 07:01:35 1000.500 10.8 72 6.0         318.05
2019-May-18 08:01:47 1001.000 9.9 74 5.5         318.05
2019-May-18 09:01:48 1001.100 10.5 67 4.6         318.05
2019-May-18 10:01:44 1001.200 13.4 54 4.2         318.05
2019-May-18 11:01:51 1001.000 14.4 47 3.2         318.05
2019-May-18 12:02:00 1001.200 14.4 43 1.9         318.05
2019-May-18 13:01:50 1001.200 18.3 34 2.1         318.05
2019-May-18 14:01:57 1001.200 16.4 36 1.2         318.05
2019-May-18 15:01:50 1001.200 17.4 38 2.9         318.05
2019-May-18 16:01:53 1001.300 16.4 38 2.0         318.05
2019-May-18 17:01:47 1000.900 15.4 42 2.5         318.05
2019-May-18 18:01:31 1001.100 15.4 37 0.7         318.05
2019-May-18 19:01:45 1001.300 14.9 37 0.2         318.05
2019-May-18 20:02:03 1001.600 15.2 36 0.1         318.05
2019-May-18 21:01:43 1002.200 13.9 34 -1.8         318.05
2019-May-18 22:01:41 1003.000 12.5 46 1.1         318.05
2019-May-18 23:01:51 1003.600 11.6 57 3.3         318.05

Temperatura Máxima:18°    Temperatura Mínima:
Presión Máxima:1003.600 Hpa    Presión Mínima:1000.500 Hpa


Volver